Time;durP1;ratioP1;P1;durP2;ratioP2;P2;SDS_P1;SDS_P2;PMS_P1;PMS_P2;Temp;Humidity;BMP_temperature;BMP_pressure;BME280_temperature;BME280_humidity;BME280_pressure;Samples;Min_cycle;Max_cycle;Signal;HPM_P1;HPM_P2
2022/12/02 00:01:16;;;;;;;34.72;16.13;;;;;;;2.03;100.00;97670.63;5027649;28;20053;-65
2022/12/02 00:03:43;;;;;;;34.13;16.05;;;;;;;2.02;100.00;97674.31;5028304;28;20084;-65
2022/12/02 00:06:19;;;;;;;33.42;15.88;;;;;;;2.07;100.00;97679.94;5028800;28;20045;-66
2022/12/02 00:08:46;;;;;;;35.55;15.73;;;;;;;2.06;100.00;97672.91;5015011;28;20041;-66
2022/12/02 00:11:28;;;;;;;32.63;16.48;;;;;;;2.08;100.00;97673.56;5028229;28;20083;-66
2022/12/02 00:13:57;;;;;;;32.88;15.82;;;;;;;2.16;100.00;97670.78;5028630;28;20052;-65
2022/12/02 00:16:25;;;;;;;32.33;16.05;;;;;;;2.17;100.00;97672.41;5028221;28;20060;-66
2022/12/02 00:18:53;;;;;;;30.02;15.02;;;;;;;2.07;100.00;97670.06;5027474;28;20256;-67
2022/12/02 00:21:21;;;;;;;31.40;16.38;;;;;;;2.07;100.00;97666.56;5028120;28;20049;-67
2022/12/02 00:23:48;;;;;;;34.00;16.92;;;;;;;1.99;100.00;97664.81;5027593;28;20520;-65
2022/12/02 00:26:14;;;;;;;38.30;16.05;;;;;;;2.14;100.00;97663.97;5027736;28;20049;-66
2022/12/02 00:28:41;;;;;;;37.03;18.25;;;;;;;2.15;100.00;97653.09;5026460;28;20069;-66
2022/12/02 00:31:07;;;;;;;35.40;16.70;;;;;;;2.12;100.00;97649.94;5026337;28;20537;-66
2022/12/02 00:33:34;;;;;;;34.10;17.48;;;;;;;1.99;100.00;97648.81;5027956;28;20049;-67
2022/12/02 00:36:01;;;;;;;34.53;17.05;;;;;;;1.98;100.00;97657.03;5028130;28;20423;-65
2022/12/02 00:38:27;;;;;;;35.67;16.70;;;;;;;2.07;100.00;97650.53;5010679;28;20532;-66
2022/12/02 00:40:53;;;;;;;35.72;17.83;;;;;;;2.01;100.00;97651.28;5026856;28;20164;-65
2022/12/02 00:48:50;;;;;;;34.55;15.93;;;;;;;2.06;100.00;97640.84;5027649;28;20463;-65
2022/12/02 00:51:17;;;;;;;37.05;17.20;;;;;;;1.96;100.00;97643.84;5027018;28;20126;-66
2022/12/02 00:53:43;;;;;;;38.42;16.58;;;;;;;1.98;100.00;97641.00;5027034;28;20580;-65
2022/12/02 00:56:10;;;;;;;38.17;18.15;;;;;;;1.87;100.00;97636.97;5027971;28;20472;-66
2022/12/02 00:58:36;;;;;;;38.08;16.73;;;;;;;1.90;100.00;97639.25;5027242;28;20056;-66
2022/12/02 01:01:03;;;;;;;36.83;17.75;;;;;;;1.97;100.00;97626.81;5027583;28;20069;-66
2022/12/02 01:03:29;;;;;;;35.33;17.00;;;;;;;1.95;100.00;97631.50;5026894;28;20455;-67
2022/12/02 01:05:56;;;;;;;40.60;18.02;;;;;;;1.86;100.00;97635.31;5027203;28;20127;-66
2022/12/02 01:08:26;;;;;;;42.85;19.00;;;;;;;1.72;100.00;97629.00;5020832;28;20132;-66
2022/12/02 01:10:53;;;;;;;42.17;17.75;;;;;;;1.71;100.00;97627.34;5026122;28;20417;-66
2022/12/02 01:13:21;;;;;;;41.67;18.05;;;;;;;1.73;100.00;97628.81;5027359;28;20111;-66
2022/12/02 01:15:47;;;;;;;39.92;18.83;;;;;;;1.68;100.00;97624.06;5021886;28;20129;-66
2022/12/02 01:18:14;;;;;;;42.33;18.70;;;;;;;1.78;100.00;97625.59;5019970;28;20197;-66
2022/12/02 01:20:41;;;;;;;39.63;17.52;;;;;;;1.87;100.00;97621.78;5027132;28;20045;-66
2022/12/02 01:23:07;;;;;;;39.85;17.38;;;;;;;1.78;100.00;97621.09;5026549;28;20041;-66
2022/12/02 01:25:34;;;;;;;35.15;16.63;;;;;;;1.84;100.00;97619.47;5026544;28;20124;-66
2022/12/02 01:28:00;;;;;;;39.58;17.38;;;;;;;1.83;100.00;97615.16;5025416;28;20045;-66
2022/12/02 01:30:27;;;;;;;41.65;18.90;;;;;;;1.84;100.00;97621.34;5021887;28;20490;-66
2022/12/02 01:32:54;;;;;;;42.47;16.90;;;;;;;1.84;100.00;97616.00;5006588;28;20508;-67
2022/12/02 01:35:20;;;;;;;40.60;17.23;;;;;;;1.71;100.00;97614.00;5019951;28;20041;-66
2022/12/02 01:37:47;;;;;;;42.22;18.08;;;;;;;1.90;100.00;97618.72;5016087;28;20042;-65
2022/12/02 01:40:14;;;;;;;43.25;16.75;;;;;;;1.82;100.00;97610.84;5018049;28;20041;-66
2022/12/02 01:42:42;;;;;;;41.03;17.50;;;;;;;1.74;100.00;97610.97;5026862;28;20129;-66
2022/12/02 01:45:10;;;;;;;41.78;16.85;;;;;;;1.67;100.00;97610.91;5025922;28;20061;-65
2022/12/02 01:47:38;;;;;;;42.65;18.60;;;;;;;1.56;100.00;97613.03;5026270;28;20178;-66
2022/12/02 01:50:07;;;;;;;43.78;17.48;;;;;;;1.60;100.00;97616.16;5023031;28;20455;-65
2022/12/02 01:52:35;;;;;;;37.55;16.48;;;;;;;1.71;100.00;97612.16;5025703;28;20073;-65
2022/12/02 01:55:05;;;;;;;48.28;20.40;;;;;;;1.78;100.00;97607.75;5026308;28;20041;-66
2022/12/02 01:57:32;;;;;;;41.63;18.58;;;;;;;1.76;100.00;97611.59;5024880;28;20079;-66
2022/12/02 01:59:58;;;;;;;41.35;18.10;;;;;;;1.59;100.00;97605.66;5021271;28;20049;-65
2022/12/02 02:02:36;;;;;;;46.42;19.23;;;;;;;1.66;100.00;97607.38;5006427;28;20051;-66
2022/12/02 02:05:15;;;;;;;45.33;18.35;;;;;;;1.76;100.00;97609.75;5015340;28;20037;-65
2022/12/02 02:07:46;;;;;;;42.08;18.88;;;;;;;1.78;100.00;97609.56;5024906;28;20050;-66
2022/12/02 02:10:13;;;;;;;45.22;19.02;;;;;;;1.87;100.00;97605.75;5023811;28;20052;-66
2022/12/02 02:12:40;;;;;;;41.17;18.20;;;;;;;1.90;100.00;97601.88;5025006;28;20211;-65
2022/12/02 02:15:09;;;;;;;41.80;18.13;;;;;;;1.76;100.00;97596.41;5025847;28;20493;-66
2022/12/02 02:17:36;;;;;;;41.95;17.67;;;;;;;1.69;100.00;97600.84;5024843;28;20051;-66
2022/12/02 02:20:08;;;;;;;36.95;15.18;;;;;;;1.77;100.00;97602.59;5009331;28;20046;-66
2022/12/02 02:22:40;;;;;;;40.95;18.33;;;;;;;1.81;100.00;97596.66;5004806;28;20065;-66
2022/12/02 02:25:17;;;;;;;46.38;19.45;;;;;;;1.84;100.00;97595.44;5017979;28;20652;-66
2022/12/02 02:27:52;;;;;;;41.88;17.98;;;;;;;1.84;100.00;97594.63;5006478;28;20055;-66
2022/12/02 02:30:19;;;;;;;35.13;16.23;;;;;;;1.82;100.00;97584.16;5041602;28;20055;-65
2022/12/02 02:32:48;;;;;;;36.50;16.45;;;;;;;1.91;100.00;97584.81;5044547;28;20516;-66
2022/12/02 02:35:15;;;;;;;37.95;15.48;;;;;;;1.93;100.00;97591.66;5026558;28;20037;-66
2022/12/02 02:37:42;;;;;;;41.17;18.73;;;;;;;1.81;100.00;97593.97;5024270;28;20046;-66
2022/12/02 02:40:14;;;;;;;39.58;16.70;;;;;;;1.89;100.00;97589.53;5025159;28;20045;-66
2022/12/02 02:42:45;;;;;;;41.10;19.02;;;;;;;1.88;100.00;97586.03;5024669;28;20144;-66
2022/12/02 02:45:12;;;;;;;43.60;17.70;;;;;;;1.93;100.00;97585.47;5018361;28;20032;-66
2022/12/02 02:47:40;;;;;;;39.67;19.17;;;;;;;1.92;100.00;97587.31;5020562;28;20045;-66
2022/12/02 02:50:07;;;;;;;40.80;17.25;;;;;;;1.90;100.00;97583.19;5021503;28;20149;-66
2022/12/02 02:52:34;;;;;;;39.33;17.02;;;;;;;1.79;100.00;97584.50;5023603;28;20049;-66
2022/12/02 02:55:02;;;;;;;38.70;18.45;;;;;;;1.89;100.00;97581.53;5024532;28;20041;-66
2022/12/02 02:57:28;;;;;;;40.50;18.20;;;;;;;1.84;100.00;97584.75;5023968;28;20056;-66
2022/12/02 02:59:55;;;;;;;39.30;18.58;;;;;;;1.86;100.00;97571.22;5024239;28;20065;-65
2022/12/02 03:02:24;;;;;;;42.45;18.10;;;;;;;1.89;100.00;97577.03;5023689;28;20049;-66
2022/12/02 03:04:52;;;;;;;39.88;16.77;;;;;;;1.97;100.00;97576.06;5023582;28;20042;-66
2022/12/02 03:07:20;;;;;;;37.35;18.17;;;;;;;1.87;100.00;97575.53;5017016;28;20099;-65
2022/12/02 03:09:48;;;;;;;38.55;16.85;;;;;;;1.89;100.00;97579.69;5009203;28;20452;-66
2022/12/02 03:12:15;;;;;;;42.72;17.98;;;;;;;1.90;100.00;97577.84;5017904;28;20045;-65
2022/12/02 03:14:43;;;;;;;38.70;16.60;;;;;;;1.80;100.00;97570.13;5006858;28;20144;-65
2022/12/02 03:17:10;;;;;;;43.28;17.58;;;;;;;1.83;100.00;97571.63;5024238;28;20045;-66
2022/12/02 03:19:38;;;;;;;43.50;17.85;;;;;;;1.96;100.00;97566.41;5025943;28;20045;-66
2022/12/02 03:22:05;;;;;;;35.70;17.38;;;;;;;2.02;100.00;97567.47;5024505;28;20055;-65
2022/12/02 03:24:32;;;;;;;46.90;19.00;;;;;;;1.96;100.00;97563.75;5025440;28;20437;-65
2022/12/02 03:26:59;;;;;;;39.72;18.90;;;;;;;1.90;100.00;97565.31;5025335;28;20417;-66
2022/12/02 03:29:27;;;;;;;42.70;18.60;;;;;;;1.83;100.00;97567.09;5025540;28;20048;-65
2022/12/02 03:31:57;;;;;;;41.17;16.30;;;;;;;1.90;100.00;97565.31;5008840;28;20042;-66
2022/12/02 03:34:23;;;;;;;37.08;15.88;;;;;;;1.93;100.00;97558.78;5012068;28;20528;-66
2022/12/02 03:36:50;;;;;;;39.10;16.83;;;;;;;1.87;100.00;97559.53;5026429;28;20117;-65
2022/12/02 03:39:17;;;;;;;41.33;18.58;;;;;;;1.87;100.00;97564.88;5011444;28;20121;-66
2022/12/02 03:41:44;;;;;;;42.90;17.75;;;;;;;1.82;100.00;97565.44;5028540;28;20408;-66
2022/12/02 03:44:11;;;;;;;41.33;17.65;;;;;;;1.77;100.00;97567.88;5028471;28;20141;-65
2022/12/02 03:46:38;;;;;;;44.33;17.83;;;;;;;1.86;100.00;97557.88;5028890;28;20045;-66
2022/12/02 03:49:04;;;;;;;48.40;18.65;;;;;;;1.76;100.00;97563.53;5022677;28;20092;-66
2022/12/02 03:51:31;;;;;;;43.25;18.58;;;;;;;1.86;100.00;97558.72;5027865;28;20045;-65
2022/12/02 03:54:00;;;;;;;45.67;18.23;;;;;;;1.94;100.00;97557.75;5028556;28;20050;-66
2022/12/02 03:56:27;;;;;;;44.55;17.17;;;;;;;1.98;100.00;97552.88;5027119;28;20056;-66
2022/12/02 03:58:53;;;;;;;38.65;17.67;;;;;;;1.88;100.00;97553.19;5026367;28;20045;-66
2022/12/02 04:01:21;;;;;;;42.35;16.35;;;;;;;1.78;100.00;97545.50;5027571;28;20467;-66
2022/12/02 04:03:48;;;;;;;36.42;16.10;;;;;;;1.78;100.00;97553.50;5028011;28;20498;-65
2022/12/02 04:06:14;;;;;;;44.80;17.70;;;;;;;1.68;100.00;97549.31;5028360;28;20107;-67
2022/12/02 04:08:41;;;;;;;42.13;17.58;;;;;;;1.77;100.00;97544.66;5010423;28;20061;-66
2022/12/02 04:11:07;;;;;;;43.90;19.30;;;;;;;1.81;100.00;97542.44;5023785;28;20037;-66
2022/12/02 04:13:34;;;;;;;42.55;17.75;;;;;;;1.76;100.00;97539.50;5028135;28;20137;-66
2022/12/02 04:16:00;;;;;;;50.38;21.33;;;;;;;1.73;100.00;97535.38;5027725;28;20563;-65
2022/12/02 04:18:27;;;;;;;46.25;19.55;;;;;;;1.74;100.00;97544.22;5027600;28;20511;-66
2022/12/02 04:20:54;;;;;;;48.78;20.13;;;;;;;1.62;100.00;97538.56;5020722;28;20512;-66
2022/12/02 04:23:20;;;;;;;46.20;19.05;;;;;;;1.71;100.00;97536.59;5028440;28;20072;-65
2022/12/02 04:25:47;;;;;;;44.72;19.13;;;;;;;1.80;100.00;97536.28;5027540;28;20269;-66
2022/12/02 04:28:13;;;;;;;49.03;19.02;;;;;;;1.81;100.00;97532.56;5016476;28;20077;-65
2022/12/02 04:30:40;;;;;;;51.55;20.70;;;;;;;1.70;100.00;97533.09;5018273;28;20057;-65
2022/12/02 04:33:06;;;;;;;42.33;18.60;;;;;;;1.71;100.00;97526.75;5027712;28;20133;-65
2022/12/02 04:35:33;;;;;;;50.30;21.45;;;;;;;1.52;100.00;97528.19;5027948;28;20088;-65
2022/12/02 04:37:59;;;;;;;54.17;21.58;;;;;;;1.59;100.00;97529.09;5014880;28;20095;-67
2022/12/02 04:40:26;;;;;;;50.28;19.88;;;;;;;1.69;100.00;97537.59;5015823;28;20041;-65
2022/12/02 04:42:52;;;;;;;54.03;21.58;;;;;;;1.68;100.00;97529.78;5026890;28;20049;-66
2022/12/02 04:45:19;;;;;;;54.83;21.33;;;;;;;1.77;100.00;97530.50;5026822;28;20045;-65
2022/12/02 04:47:45;;;;;;;54.28;20.33;;;;;;;1.71;100.00;97524.06;5027549;28;20465;-65
2022/12/02 04:50:12;;;;;;;50.05;20.70;;;;;;;1.57;100.00;97523.13;5020631;28;20107;-65
2022/12/02 04:52:38;;;;;;;45.42;19.58;;;;;;;1.55;100.00;97517.97;5027036;28;20073;-66
2022/12/02 04:55:05;;;;;;;46.38;19.20;;;;;;;1.53;100.00;97520.00;5026924;28;20054;-66
2022/12/02 04:57:32;;;;;;;50.20;20.75;;;;;;;1.49;100.00;97523.22;5027722;28;20088;-65
2022/12/02 04:59:58;;;;;;;52.88;21.15;;;;;;;1.59;100.00;97513.09;5026935;28;20047;-66
2022/12/02 05:02:25;;;;;;;57.55;20.85;;;;;;;1.58;100.00;97507.94;5026237;28;20075;-66
2022/12/02 05:04:52;;;;;;;50.90;19.45;;;;;;;1.71;100.00;97507.22;5024278;28;20045;-66
2022/12/02 05:07:19;;;;;;;50.20;20.30;;;;;;;1.77;100.00;97509.94;5020116;28;20056;-66
2022/12/02 05:09:45;;;;;;;51.47;20.30;;;;;;;1.78;100.00;97506.28;5009181;28;20073;-66
2022/12/02 05:12:11;;;;;;;48.53;19.45;;;;;;;1.96;100.00;97507.66;5025817;28;20049;-65
2022/12/02 05:14:38;;;;;;;46.63;19.92;;;;;;;1.90;100.00;97509.25;5027226;28;20049;-66
2022/12/02 05:17:05;;;;;;;50.10;19.25;;;;;;;1.89;100.00;97512.94;5027067;28;20053;-66
2022/12/02 05:19:31;;;;;;;45.45;18.73;;;;;;;1.95;100.00;97509.50;5017427;28;20119;-66
2022/12/02 05:21:58;;;;;;;45.83;19.23;;;;;;;1.96;100.00;97510.31;5025110;28;20046;-65
2022/12/02 05:24:24;;;;;;;43.92;19.20;;;;;;;1.82;100.00;97506.72;5026536;28;20060;-65
2022/12/02 05:26:51;;;;;;;38.55;17.65;;;;;;;1.78;100.00;97505.44;5026937;28;20547;-66
2022/12/02 05:29:18;;;;;;;45.88;18.95;;;;;;;1.67;100.00;97512.13;5025279;28;20061;-65
2022/12/02 05:31:45;;;;;;;44.83;19.45;;;;;;;1.69;100.00;97502.91;5026284;28;20045;-65
2022/12/02 05:34:11;;;;;;;51.70;19.63;;;;;;;1.69;100.00;97505.56;5027144;28;20061;-66
2022/12/02 05:36:38;;;;;;;54.75;20.85;;;;;;;1.65;100.00;97506.97;5022581;28;20049;-66
2022/12/02 05:39:05;;;;;;;49.47;20.08;;;;;;;1.77;100.00;97507.28;5026929;28;20044;-65
2022/12/02 05:41:31;;;;;;;52.03;20.58;;;;;;;1.71;100.00;97512.56;5025949;28;20128;-66
2022/12/02 05:44:07;;;;;;;54.00;20.58;;;;;;;1.73;100.00;97515.88;5026664;28;20096;-63
2022/12/02 05:46:34;;;;;;;48.97;18.45;;;;;;;1.65;100.00;97509.63;5026236;28;20076;-61
2022/12/02 05:49:01;;;;;;;51.97;18.92;;;;;;;1.62;100.00;97517.22;5020725;28;20511;-58
2022/12/02 05:51:30;;;;;;;51.17;20.42;;;;;;;1.61;100.00;97511.03;5025294;28;20136;-57
2022/12/02 05:53:57;;;;;;;53.55;19.73;;;;;;;1.62;100.00;97512.69;5025331;28;20127;-60
2022/12/02 05:56:26;;;;;;;44.72;19.60;;;;;;;1.71;100.00;97515.22;5026240;28;20048;-62
2022/12/02 05:58:59;;;;;;;53.72;20.80;;;;;;;1.67;100.00;97504.91;5026466;28;20068;-60
2022/12/02 06:01:38;;;;;;;51.08;20.35;;;;;;;1.72;100.00;97503.53;5025569;28;20087;-59
2022/12/02 06:04:14;;;;;;;44.55;18.63;;;;;;;1.78;100.00;97500.94;5025946;28;20570;-60
2022/12/02 06:06:41;;;;;;;53.47;19.58;;;;;;;1.81;100.00;97511.22;5024111;28;20037;-62
2022/12/02 06:09:31;;;;;;;46.42;18.83;;;;;;;1.77;100.00;97507.28;5006647;28;20053;-57
2022/12/02 06:12:01;;;;;;;56.35;19.10;;;;;;;1.78;100.00;97508.94;5018838;28;20053;-61
2022/12/02 06:14:32;;;;;;;54.28;20.55;;;;;;;1.85;100.00;97511.69;5026230;28;20061;-60
2022/12/02 06:17:01;;;;;;;54.90;20.63;;;;;;;1.85;100.00;97511.69;5025509;28;20108;-59
2022/12/02 06:19:41;;;;;;;50.03;18.48;;;;;;;1.66;100.00;97505.94;5027092;28;20264;-62
2022/12/02 06:22:23;;;;;;;47.42;19.58;;;;;;;1.69;100.00;97507.41;5022264;28;20315;-61
2022/12/02 06:24:55;;;;;;;52.33;20.83;;;;;;;1.71;100.00;97508.06;5025749;28;20084;-60
2022/12/02 06:27:22;;;;;;;57.45;20.27;;;;;;;1.90;100.00;97509.25;5026233;28;20046;-61
2022/12/02 06:30:00;;;;;;;47.42;20.15;;;;;;;1.92;100.00;97501.84;5026045;28;20041;-62
2022/12/02 06:32:38;;;;;;;52.60;20.30;;;;;;;1.79;100.00;97507.94;5025409;28;20046;-61
2022/12/02 06:35:27;;;;;;;44.20;18.35;;;;;;;1.74;100.00;97499.66;5025801;28;20041;-60
2022/12/02 06:37:59;;;;;;;47.95;19.20;;;;;;;1.79;100.00;97497.25;5014593;28;20073;-61
2022/12/02 06:40:32;;;;;;;42.70;17.95;;;;;;;1.78;100.00;97489.44;5008011;28;20572;-60
2022/12/02 06:43:00;;;;;;;54.97;20.13;;;;;;;1.72;100.00;97491.00;5025794;28;20045;-60
2022/12/02 06:45:33;;;;;;;49.83;21.73;;;;;;;1.78;100.00;97492.94;5025392;28;20036;-61
2022/12/02 06:48:18;;;;;;;52.13;21.90;;;;;;;1.70;100.00;97498.41;5025388;28;20072;-61
2022/12/02 06:50:46;;;;;;;50.50;20.25;;;;;;;1.78;100.00;97500.94;5024750;28;20049;-61
2022/12/02 06:53:29;;;;;;;52.20;20.50;;;;;;;1.75;100.00;97501.31;5025294;28;20497;-61
2022/12/02 06:56:00;;;;;;;48.78;19.90;;;;;;;1.67;100.00;97499.59;5025343;28;20095;-60
2022/12/02 06:58:39;;;;;;;49.38;19.08;;;;;;;1.71;100.00;97507.22;5024193;28;20487;-60
2022/12/02 07:01:27;;;;;;;51.40;23.05;;;;;;;1.72;100.00;97500.84;5025252;28;20695;-57
2022/12/02 07:04:23;;;;;;;53.78;19.95;;;;;;;1.66;100.00;97500.59;5020134;28;20096;-61
2022/12/02 07:06:53;;;;;;;44.97;17.88;;;;;;;1.65;100.00;97498.13;5017415;28;20065;-59
2022/12/02 07:09:34;;;;;;;48.63;19.80;;;;;;;1.65;100.00;97496.28;5009678;28;20049;-59
2022/12/02 07:12:01;;;;;;;52.22;18.15;;;;;;;1.66;100.00;97502.47;5028410;28;20052;-59
2022/12/02 07:14:42;;;;;;;57.92;21.48;;;;;;;1.63;100.00;97506.34;5029756;28;20339;-58
2022/12/02 07:17:26;;;;;;;54.03;19.45;;;;;;;1.58;100.00;97503.41;5028029;28;20515;-57
2022/12/02 07:20:14;;;;;;;50.97;18.98;;;;;;;1.35;100.00;97500.91;5021383;28;20041;-57
2022/12/02 07:22:52;;;;;;;48.55;18.50;;;;;;;1.35;100.00;97512.44;5028523;28;20133;-58
2022/12/02 07:25:36;;;;;;;62.63;20.17;;;;;;;1.26;100.00;97511.69;5026936;28;20793;-58
2022/12/02 07:28:33;;;;;;;61.00;22.02;;;;;;;1.38;100.00;97512.06;5014482;28;20383;-58
2022/12/02 07:31:21;;;;;;;66.88;23.42;;;;;;;1.38;100.00;97516.56;5012279;28;20133;-59
2022/12/02 07:33:48;;;;;;;70.40;28.95;;;;;;;1.36;100.00;97515.94;5024899;28;20056;-59
2022/12/02 07:36:16;;;;;;;64.25;24.50;;;;;;;1.51;100.00;97514.03;5024472;28;20046;-58
2022/12/02 07:38:42;;;;;;;66.70;29.35;;;;;;;1.54;100.00;97521.66;5012235;28;20372;-60
2022/12/02 07:41:30;;;;;;;60.30;23.02;;;;;;;1.45;100.00;97514.78;5013444;28;20042;-59
2022/12/02 07:44:03;;;;;;;62.25;22.38;;;;;;;1.45;100.00;97509.44;5029529;28;20045;-61
2022/12/02 07:46:29;;;;;;;54.35;19.35;;;;;;;1.54;100.00;97513.66;5015709;28;20053;-61
2022/12/02 07:48:56;;;;;;;55.80;19.73;;;;;;;1.53;100.00;97509.34;5017001;28;20218;-60
2022/12/02 07:51:24;;;;;;;65.75;20.75;;;;;;;1.34;100.00;97502.78;5017003;28;20038;-61
2022/12/02 07:53:51;;;;;;;54.67;19.45;;;;;;;1.42;100.00;97508.00;5009844;28;20056;-61
2022/12/02 07:56:17;;;;;;;59.85;20.90;;;;;;;1.44;100.00;97510.47;5013625;28;20504;-61
2022/12/02 07:58:44;;;;;;;51.25;19.30;;;;;;;1.43;100.00;97506.13;5014441;28;20053;-59
2022/12/02 08:01:31;;;;;;;77.50;22.10;;;;;;;1.29;100.00;97505.19;5024257;28;20061;-60
2022/12/02 08:03:57;;;;;;;68.90;21.48;;;;;;;1.30;100.00;97510.31;5001160;28;20369;-58
2022/12/02 08:06:24;;;;;;;61.10;20.02;;;;;;;1.38;100.00;97512.06;5006505;28;20052;-58
2022/12/02 08:08:50;;;;;;;65.90;20.63;;;;;;;1.51;100.00;97514.03;5008892;28;20049;-58
2022/12/02 08:11:17;;;;;;;59.40;19.27;;;;;;;1.38;100.00;97504.06;5019283;28;20099;-58
2022/12/02 08:13:43;;;;;;;67.85;20.77;;;;;;;1.46;100.00;97505.75;5013030;28;20081;-61
2022/12/02 08:16:10;;;;;;;58.30;19.05;;;;;;;1.59;100.00;97509.56;5010126;28;20128;-58
2022/12/02 08:18:37;;;;;;;57.65;20.80;;;;;;;1.71;100.00;97513.41;5028840;28;20087;-57
2022/12/02 08:21:03;;;;;;;59.17;19.60;;;;;;;1.68;100.00;97514.59;5027501;28;20463;-57
2022/12/02 08:23:35;;;;;;;62.88;20.23;;;;;;;1.50;100.00;97514.19;5027681;28;20037;-60
2022/12/02 08:26:02;;;;;;;58.10;19.52;;;;;;;1.49;100.00;97509.88;5025927;28;20045;-58
2022/12/02 08:28:28;;;;;;;61.70;19.67;;;;;;;1.62;100.00;97507.34;5021939;28;20041;-61
2022/12/02 08:30:55;;;;;;;56.00;20.52;;;;;;;1.57;100.00;97504.44;5017593;28;20506;-60
2022/12/02 08:33:22;;;;;;;60.38;20.08;;;;;;;1.62;100.00;97501.19;5020944;28;20068;-59
2022/12/02 08:35:48;;;;;;;54.40;18.30;;;;;;;1.65;100.00;97503.47;5037126;28;20060;-63
2022/12/02 08:38:15;;;;;;;47.58;18.60;;;;;;;1.71;100.00;97497.38;5020121;28;20049;-59
2022/12/02 08:40:42;;;;;;;49.75;18.00;;;;;;;1.62;100.00;97493.19;5014367;28;20042;-64
2022/12/02 08:43:09;;;;;;;47.65;17.77;;;;;;;1.64;100.00;97496.47;5012320;28;20038;-63
2022/12/02 08:45:36;;;;;;;44.72;17.23;;;;;;;1.52;100.00;97496.19;5014578;28;20053;-64
2022/12/02 08:48:02;;;;;;;49.08;18.35;;;;;;;1.68;100.00;97495.91;5015389;28;20468;-64
2022/12/02 08:50:29;;;;;;;45.17;17.05;;;;;;;1.67;100.00;97491.56;5015813;28;20046;-64
2022/12/02 08:52:55;;;;;;;50.47;17.58;;;;;;;1.62;100.00;97491.34;5014754;28;20419;-64
2022/12/02 08:55:25;;;;;;;49.72;17.95;;;;;;;1.75;100.00;97487.97;5008816;28;20056;-59
2022/12/02 08:57:51;;;;;;;45.60;18.02;;;;;;;1.77;100.00;97488.59;5022022;28;20104;-62
2022/12/02 09:00:18;;;;;;;53.40;19.63;;;;;;;1.69;100.00;97492.22;5026794;28;20042;-61
2022/12/02 09:02:44;;;;;;;52.13;18.33;;;;;;;1.70;100.00;97487.72;5023306;28;20034;-62
2022/12/02 09:05:11;;;;;;;53.15;18.85;;;;;;;1.66;100.00;97489.94;5026855;28;20052;-64
2022/12/02 09:07:38;;;;;;;51.42;17.88;;;;;;;1.58;100.00;97484.72;5017525;28;20042;-62
2022/12/02 09:10:06;;;;;;;50.63;16.98;;;;;;;1.61;100.00;97481.69;5010081;28;20037;-60
2022/12/02 09:12:33;;;;;;;49.97;18.50;;;;;;;1.62;100.00;97477.97;4991641;28;20038;-62
2022/12/02 09:14:59;;;;;;;49.15;17.60;;;;;;;1.71;100.00;97483.19;5026754;28;20081;-58
2022/12/02 09:17:26;;;;;;;48.75;17.50;;;;;;;1.83;100.00;97483.53;4986808;28;20052;-60
2022/12/02 09:19:52;;;;;;;50.35;17.60;;;;;;;1.83;100.00;97480.84;5009446;28;20059;-62
2022/12/02 09:22:19;;;;;;;48.72;18.42;;;;;;;1.76;100.00;97481.59;5026159;28;20049;-62
2022/12/02 09:24:45;;;;;;;46.33;19.40;;;;;;;1.89;100.00;97480.91;5026924;28;20068;-61
2022/12/02 09:27:12;;;;;;;48.63;16.73;;;;;;;1.78;100.00;97478.75;5024393;28;20087;-60
2022/12/02 09:29:38;;;;;;;44.78;15.23;;;;;;;1.66;100.00;97481.91;5017260;28;20056;-64
2022/12/02 09:32:04;;;;;;;49.30;17.38;;;;;;;1.73;100.00;97484.66;5021362;28;20065;-58
2022/12/02 09:34:31;;;;;;;41.30;15.25;;;;;;;1.80;100.00;97484.69;4980640;28;20050;-61
2022/12/02 09:36:58;;;;;;;42.38;15.48;;;;;;;1.68;100.00;97474.56;5019389;28;20041;-62
2022/12/02 09:39:24;;;;;;;49.85;20.85;;;;;;;1.66;100.00;97481.13;5030179;28;20624;-60
2022/12/02 09:41:51;;;;;;;46.03;16.92;;;;;;;1.58;100.00;97478.56;5023461;28;20048;-60
2022/12/02 09:44:18;;;;;;;43.35;15.52;;;;;;;1.66;100.00;97473.91;5023326;28;20135;-61
2022/12/02 09:46:45;;;;;;;42.20;15.05;;;;;;;1.78;100.00;97468.06;5024456;28;20436;-62
2022/12/02 09:49:12;;;;;;;37.63;14.80;;;;;;;1.95;100.00;97473.94;5020837;28;20486;-61
2022/12/02 09:51:39;;;;;;;36.60;13.20;;;;;;;1.91;100.00;97462.81;5026054;28;20107;-62
2022/12/02 09:54:05;;;;;;;41.75;15.50;;;;;;;1.87;100.00;97466.06;5025242;28;20505;-57
2022/12/02 09:56:32;;;;;;;38.33;15.45;;;;;;;1.79;100.00;97461.69;5019024;28;20125;-58
2022/12/02 09:58:58;;;;;;;39.70;15.50;;;;;;;1.85;100.00;97462.78;5010986;28;21175;-63
2022/12/02 10:01:25;;;;;;;35.75;16.63;;;;;;;1.87;100.00;97466.06;5005096;28;20103;-62
2022/12/02 10:03:52;;;;;;;35.03;14.40;;;;;;;1.85;100.00;97460.09;5003396;28;20049;-61
2022/12/02 10:06:27;;;;;;;33.22;13.77;;;;;;;1.86;100.00;97467.09;4989691;28;20053;-63
2022/12/02 10:08:56;;;;;;;33.38;13.55;;;;;;;1.85;100.00;97463.63;5027285;28;20118;-62
2022/12/02 10:11:28;;;;;;;24.27;11.43;;;;;;;1.82;100.00;97461.31;5019745;28;20555;-64
2022/12/02 10:13:56;;;;;;;24.05;11.63;;;;;;;1.94;100.00;97457.09;5026075;28;20046;-64
2022/12/02 10:16:22;;;;;;;26.83;11.50;;;;;;;1.83;100.00;97449.63;5026365;28;20061;-63
2022/12/02 10:18:49;;;;;;;24.70;10.32;;;;;;;1.76;100.00;97457.56;5022997;28;20064;-64
2022/12/02 10:21:16;;;;;;;31.45;10.98;;;;;;;1.79;100.00;97448.34;5018481;28;20041;-62
2022/12/02 10:23:59;;;;;;;26.83;11.65;;;;;;;1.94;100.00;97449.09;5021283;28;20724;-63
2022/12/02 10:26:40;;;;;;;23.20;10.23;;;;;;;1.84;100.00;97445.13;5023821;28;20073;-64
2022/12/02 10:29:09;;;;;;;26.15;10.85;;;;;;;1.80;100.00;97437.47;5024057;28;20072;-63
2022/12/02 10:31:35;;;;;;;26.05;11.05;;;;;;;1.83;100.00;97432.78;5027243;28;20044;-64
2022/12/02 10:34:05;;;;;;;22.25;9.45;;;;;;;1.77;100.00;97434.38;5024163;28;20046;-63
2022/12/02 10:36:36;;;;;;;21.30;9.80;;;;;;;1.86;100.00;97427.88;5033296;28;20325;-64
2022/12/02 10:39:32;;;;;;;24.48;9.50;;;;;;;1.89;100.00;97435.50;5035464;28;20049;-62
2022/12/02 10:42:03;;;;;;;21.92;9.60;;;;;;;2.07;100.00;97434.19;5028163;28;20068;-63
2022/12/02 10:44:32;;;;;;;19.45;9.23;;;;;;;2.14;100.00;97418.19;5024996;28;20045;-64
2022/12/02 10:47:13;;;;;;;22.95;10.93;;;;;;;2.21;100.00;97414.53;5029783;28;20037;-63
2022/12/02 10:49:59;;;;;;;21.35;9.32;;;;;;;2.18;100.00;97414.09;5023339;28;20041;-64
2022/12/02 10:52:43;;;;;;;19.15;9.32;;;;;;;2.15;100.00;97407.31;5029076;28;20041;-63
2022/12/02 10:55:11;;;;;;;16.45;9.13;;;;;;;2.25;100.00;97406.94;5029248;28;20435;-62
2022/12/02 10:57:41;;;;;;;23.33;10.77;;;;;;;2.15;100.00;97399.31;5025765;28;20045;-58
2022/12/02 11:00:19;;;;;;;21.83;9.20;;;;;;;2.05;100.00;97396.97;5021414;28;20054;-64
2022/12/02 11:02:57;;;;;;;21.75;8.90;;;;;;;2.09;100.00;97394.72;5022281;28;20506;-59
2022/12/02 11:05:24;;;;;;;17.80;8.52;;;;;;;2.09;100.00;97402.75;5019319;28;20116;-62
2022/12/02 11:08:02;;;;;;;18.63;7.75;;;;;;;2.13;100.00;97389.84;5022740;28;20126;-62
2022/12/02 11:10:33;;;;;;;15.05;7.90;;;;;;;2.22;100.00;97396.66;5016202;28;20435;-63
2022/12/02 11:13:10;;;;;;;20.52;9.40;;;;;;;2.26;100.00;97395.25;5024075;28;20792;-62
2022/12/02 11:15:44;;;;;;;17.83;9.07;;;;;;;2.06;100.00;97387.09;5026454;28;20842;-61
2022/12/02 11:18:23;;;;;;;16.42;8.73;;;;;;;2.16;100.00;97384.91;5027111;28;20034;-63
2022/12/02 11:21:05;;;;;;;19.08;7.55;;;;;;;2.12;100.00;97385.50;5018015;28;20140;-61
2022/12/02 11:23:33;;;;;;;14.85;7.70;;;;;;;2.10;100.00;97385.69;5025951;28;20044;-63
2022/12/02 11:26:11;;;;;;;16.50;8.07;;;;;;;2.09;100.00;97384.03;5032280;28;20640;-63
2022/12/02 11:28:50;;;;;;;16.08;8.27;;;;;;;1.93;100.00;97382.53;5026961;28;20053;-63
2022/12/02 11:31:24;;;;;;;19.17;9.48;;;;;;;2.03;100.00;97382.97;5016984;28;20461;-64
2022/12/02 11:33:52;;;;;;;14.70;7.60;;;;;;;2.16;100.00;97379.56;5026667;28;20116;-62